Aeroporto :
LOGIN :

Iscrizione | Disclaimer

   EN    FR    IT 

 










Sommario :    VFR   VFR Marginale   IFR   IFR Intensivo   IFR Molto Intensivo
Visibilità : 
Base nubi : 
>= 8 km
>= 3000ft
5 / 8 km
1000 / 3000 ft
1500m / 5 km
500 / 1000 ft
800 / 1500m
200 / 500 ft
< 800m
< 200 ft
Simboli :   Temporali  Nebbia  Neve Forte  Precipitazioni Forti  Vento > 20 kt
SIGMETs :   Varie  Temporali  Ghiacco  Turbolenza  Onda orograficha  Ceneri Vulcaniche






- Altitudine del aeroporto : 200 ft


EBBL - Klein Brogel AB

ULTIMO METAR :
  • 072055Z AUTO 21011KT 9999 OVC039/// 09/06 Q1014 BLU

METARs OBSOLETI :
  • 072025Z AUTO 21009KT 9999 OVC025/// 09/06 Q1014 BLU
  • 071955Z AUTO 22009KT 9999 OVC032/// 09/06 Q1015 BLU
  • 071925Z AUTO 22008KT 9999 OVC038/// 09/06 Q1015 BLU
  • 071855Z AUTO 22009KT 9999 OVC039/// 09/06 Q1015 BLU
  • 071825Z AUTO 22008KT 9999 OVC040/// 09/06 Q1015 BLU
  • 071755Z AUTO 23008KT 9999 OVC043/// 08/06 Q1015 BLU

TAF TAF EBBL
Valido dal 07 a 19 ore il 08 a 07 ore UTC


071541Z 0719/0807 23010KT 9999 FEW020 BKN035
BECMG 0802/0804 22015KT BKN012
TEMPO 0805/0807 4000 -RADZ BKN008



MetMap, La meteo Aeronautica in un colpo d'occhio ! - Copyright ORBIFLY Dicembre 2007 - Disclaimer

ORBIFLY MET'MAP TEAM :

Programmazione e sviluppo : Alexandra Zaïnal
Concezione : Baudouin d'Aumeries
Aiuto per la programmazione : Marc-Olivier Méhu
Supporto tecnico e logistico : Manuel Goepfert
Aiuto per la traduzione : Arnaldo La Scala

Contatto : metmap@orbifly.com




FONTI E CREDITI :

   NOAA